Аэропорт: Нальчик. Нальчик

ICAO: URMN

METAR:
2019/03/26 13:00
URMN 261300Z 06003MPS 9999 NSC 13/M04 Q1011 R24/010070 NOSIG RMK QFE722
METAR:
2018/11/19 18:33
TAF 
      AMD TAF 
      AMD URMN 191805Z 1918/2006 06003MPS 0400 FG OVC002 
      TEMPO 1918/2003 1000 BR OVC004